• Join FlightAware (Why Join?)
  • Login
  • US Flag 
02:18AM EDT


 

Airport Tracker/Info


-or-


 

Live Flight TrackerFlight Track Log ✈ SWA2004 ✈ 27-Jul-2013 ✈ KOAK - KABQ

Flight Track Log - Related Links

Times and Time Zones

All times are in EDT time to prevent confusion due to time zone crossing. See the SWA2004 flight status page for this flight to view local times or setup timezone preferences in your user account.

Time Position Orientation Groundspeed Altitude Reporting Facility
EDT Latitude Longitude Course Direction KTS MPH feet Rate Location/Type
11:43AM 37.7333 -122.2500 310° West 164 189 1,100  Level Northern Cal TRACON
11:44AM 37.7667 -122.3000 310° West 227 261 3,200 2,100 Climbing Northern Cal TRACON
11:45AM 37.8389 -122.2250 39° Northeast 247 284 7,100 2,160 Climbing Oakland Center
11:46AM 37.8558 -122.1347 77° East 261 300 9,200 2,100 Climbing Oakland Center
11:47AM 37.8767 -122.0322 76° East 294 338 11,400 2,340 Climbing Oakland Center
11:48AM 37.8994 -121.9142 76° East 340 391 14,000 2,460 Climbing Oakland Center
11:49AM 37.9233 -121.7944 76° East 350 403 16,500 2,340 Climbing Oakland Center
11:51AM 37.9469 -121.6694 76° East 364 419 18,800 2,400 Climbing Oakland Center
11:52AM 37.9778 -121.5103 76° East 386 444 21,500 2,220 Climbing Oakland Center
11:53AM 38.0019 -121.3850 76° East 396 456 23,400 1,740 Climbing Oakland Center
11:54AM 38.0286 -121.2450 76° East 408 470 25,100 1,620 Climbing Oakland Center
11:55AM 38.0553 -121.0992 77° East 424 488 26,800 1,620 Climbing Oakland Center
11:56AM 38.0819 -120.9503 77° East 434 499 28,500 1,680 Climbing Oakland Center
11:57AM 38.1064 -120.7664 80° East 443 510 30,300 1,560 Climbing Oakland Center
11:58AM 38.1269 -120.6103 80° East 450 518 31,800 1,380 Climbing Oakland Center
11:59AM 38.1483 -120.4522 80° East 455 524 33,200 1,260 Climbing Oakland Center
12:00PM 38.1689 -120.2922 81° East 460 529 34,400 1,080 Climbing Oakland Center
12:01PM 38.1906 -120.1308 80° East 464 534 35,500 1,140 Climbing Oakland Center
12:02PM 38.2106 -119.9683 81° East 466 536 36,800 660 Climbing Oakland Center
12:03PM 38.2311 -119.8061 81° East 467 537 36,900  Climbing Oakland Center
12:04PM 38.2525 -119.6444 80° East 466 536 36,900  Level Oakland Center
12:05PM 38.2750 -119.4578 81° East 466 536 36,900  Level Oakland Center
12:06PM 38.2944 -119.2967 81° East 463 533 36,900  Level Oakland Center
12:07PM 38.3139 -119.1333 81° East 468 539 36,900  Level Oakland Center
12:08PM 38.3333 -118.9719 81° East 464 534 36,900  Level Oakland Center
12:09PM 38.3531 -118.8103 81° East 464 534 36,900  Level Oakland Center
12:10PM 38.3722 -118.6469 81° East 467 537 36,900  Level Oakland Center
12:11PM 38.3789 -118.4536 87° East 459 528 36,900  Level Oakland Center
12:12PM 38.3756 -118.2919 91° East 458 527 36,900  Level Oakland Center
12:13PM 38.3722 -118.1314 91° East 456 525 36,900  Level Oakland Center
12:14PM 38.3714 -117.9828 90° East 456 525 36,900  Level Oakland Center
12:15PM 38.3681 -117.8217 91° East 456 525 36,900  Level Oakland Center
12:16PM 38.3642 -117.6594 92° East 457 526 36,900  Level Oakland Center
12:17PM 38.3625 -117.5636 91° East 453 521 36,900  Level Salt Lake Center
12:18PM 38.3583 -117.4003 92° East 457 526 36,900  Level Salt Lake Center
12:19PM 38.3547 -117.2364 92° East 456 525 36,900  Level Salt Lake Center
12:20PM 38.3497 -117.0722 92° East 456 525 36,900  Level Salt Lake Center
12:21PM 38.3447 -116.8756 92° East 458 527 36,900  Level Salt Lake Center
12:22PM 38.3394 -116.7122 92° East 458 527 36,900  Level Salt Lake Center
12:23PM 38.3353 -116.5492 92° East 458 527 36,900  Level Salt Lake Center
12:24PM 38.3297 -116.3861 92° East 460 529 36,900  Level Salt Lake Center
12:25PM 38.3247 -116.2219 92° East 464 534 36,900  Level Salt Lake Center
12:26PM 38.3186 -116.0597 93° East 461 531 36,900  Level Salt Lake Center
12:27PM 38.3139 -115.8950 92° East 465 535 36,900  Level Salt Lake Center
12:28PM 38.3075 -115.6989 92° East 462 532 36,900  Level Salt Lake Center
12:29PM 38.3006 -115.5342 93° East 465 535 36,900  Level Salt Lake Center
12:30PM 38.2931 -115.3694 93° East 467 537 36,900  Level Salt Lake Center
12:31PM 38.2889 -115.2203 92° East 462 532 36,900  Level Salt Lake Center
12:32PM 38.2794 -115.0211 93° East 469 540 36,900  Level Salt Lake Center
12:33PM 38.2739 -114.8569 92° East 467 537 37,000  Climbing Salt Lake Center
12:34PM 38.2661 -114.6931 93° East 465 535 37,000  Level Salt Lake Center
12:35PM 38.2575 -114.5264 94° East 472 543 37,000  Level Salt Lake Center
12:36PM 38.2469 -114.3608 95° East 470 541 37,000  Level Salt Lake Center
12:37PM 38.2119 -114.2042 106° East 462 532 37,000  Level Salt Lake Center
12:38PM 38.1717 -114.0144 105° East 464 534 37,000  Level Salt Lake Center
12:39PM 38.1378 -113.8553 105° East 466 536 37,000  Level Salt Lake Center
12:40PM 38.1047 -113.6978 105° East 463 533 37,000  Level Salt Lake Center
12:41PM 38.0703 -113.5372 105° East 469 540 37,000  Level Salt Lake Center
12:42PM 38.0353 -113.3769 105° East 471 542 37,000  Level Salt Lake Center
12:43PM 38.0003 -113.2181 106° East 469 540 37,000  Level Salt Lake Center
12:45PM 37.9589 -113.0250 105° East 469 540 37,000  Level Salt Lake Center
12:46PM 37.9231 -112.8631 106° East 473 544 37,000  Level Salt Lake Center
12:47PM 37.8864 -112.7006 106° East 474 545 37,000  Level Salt Lake Center
12:48PM 37.8497 -112.5389 106° East 473 544 37,000  Level Salt Lake Center
12:49PM 37.8131 -112.3789 106° East 472 543 37,000  Level Salt Lake Center
12:50PM 37.7764 -112.2203 106° East 470 541 37,000  Level Salt Lake Center
12:51PM 37.7394 -112.0611 106° East 471 542 37,000  Level Salt Lake Center
12:52PM 37.7031 -111.9028 106° East 470 541 37,000  Level Salt Lake Center
12:53PM 37.6578 -111.7133 107° East 469 540 37,000  Level Salt Lake Center
12:54PM 37.6206 -111.5561 107° East 468 539 37,000  Level Salt Lake Center
12:55PM 37.5911 -111.4286 106° East 473 544 37,000  Level Denver Center
12:56PM 37.5533 -111.2711 107° East 470 541 37,000  Level Denver Center
12:57PM 37.5164 -111.1133 106° East 471 542 37,000  Level Denver Center
12:58PM 37.4786 -110.9558 107° East 471 542 37,000  Level Denver Center
12:59PM 37.4322 -110.7678 107° East 470 541 37,000  Level Denver Center
01:00PM 37.3942 -110.6100 107° East 473 544 37,000  Level Denver Center
01:01PM 37.3558 -110.4531 107° East 471 542 37,000  Level Denver Center
01:02PM 37.3161 -110.2953 108° East 475 547 37,000  Level Denver Center
01:03PM 37.2739 -110.1250 107° East 474 545 37,000  Level Denver Center
01:04PM 37.2361 -109.9728 107° East 476 548 37,000  Level Denver Center
01:05PM 37.1919 -109.7953 107° East 476 548 37,000  Level Denver Center
01:06PM 37.1528 -109.6428 108° East 480 552 37,000  Level Denver Center
01:07PM 37.1067 -109.4642 108° East 481 554 37,000  Level Denver Center
01:08PM 37.0681 -109.3117 108° East 480 552 37,000  Level Denver Center
01:09PM 36.9914 -109.1522 121° Southeast 479 551 37,000  Level Denver Center
01:10PM 36.9194 -109.0217 125° Southeast 475 547 37,000  Level Denver Center
01:11PM 36.8364 -108.8672 124° Southeast 478 550 37,000 -120 Level Denver Center
01:12PM 36.7647 -108.7369 124° Southeast 474 545 36,800 -660 Descending Denver Center
01:13PM 36.6794 -108.5794 124° Southeast 484 557 35,700 -1,140 Descending Denver Center
01:14PM 36.6069 -108.4489 125° Southeast 480 552 34,500 -1,200 Descending Denver Center
01:15PM 36.5364 -108.3236 125° Southeast 463 533 33,300 -1,200 Descending Denver Center
01:16PM 36.4556 -108.1781 125° Southeast 456 525 32,100 -1,020 Descending Denver Center
01:17PM 36.3861 -108.0533 125° Southeast 456 525 31,200 -1,020 Descending Denver Center
01:18PM 36.3047 -107.9078 125° Southeast 457 526 30,100 -1,020 Descending Denver Center
01:19PM 36.2336 -107.7847 126° Southeast 458 527 29,200 -600 Descending Albuquerque Center
01:21PM 36.1653 -107.6619 125° Southeast 454 522 29,000 -120 Descending Albuquerque Center
01:22PM 36.0656 -107.5525 138° Southeast 435 501 29,000 -300 Level Albuquerque Center
01:23PM 35.9628 -107.4889 153° Southeast 431 496 28,500 -1,680 Descending Albuquerque Center
01:24PM 35.8331 -107.4258 158° South 441 507 25,600 -2,580 Descending Albuquerque Center
01:25PM 35.7272 -107.3822 162° South 426 490 23,300 -2,460 Descending Albuquerque Center
01:26PM 35.6231 -107.2964 146° Southeast 407 468 20,600 -2,460 Descending Albuquerque Center
01:27PM 35.5378 -107.2247 146° Southeast 392 451 18,300 -2,100 Descending Albuquerque Center
01:28PM 35.4553 -107.1533 145° Southeast 380 437 16,300 -2,160 Descending Albuquerque Center
01:29PM 35.3719 -107.0853 146° Southeast 362 417 13,900 -2,340 Descending Albuquerque Center
01:31PM 35.1957 -106.9364 145° Southeast  Level FlightAware Approximate
01:38PM 35.0402 -106.6092 90° East  Level Estimated
01:39PM 35.0402 -106.6092 90° East  Level Estimated
01:40PM 35.0402 -106.6092 90° East  Level Estimated
01:41PM 35.0402 -106.6092 90° East  Level Estimated
01:42PM 35.0402 -106.6092 90° East  Level Estimated
01:43PM 35.0402 -106.6092 90° East  Level Estimated
01:44PM 35.0402 -106.6092 90° East  Level Estimated
01:45PM 35.0402 -106.6092 90° East  Level Estimated